SWA278 KMYR-KSFB
Flight info
| Callsign | SWA278 |
|---|---|
| Flight time | 0h 59m |
| Altitude | 34000 |
| Route | CHS IGARY Q85 LPERD TTHOR3 |
| Aircraft | B38M/M-SDE1FGHILORVWXY/HB1 |
Departure
| Time | 2026-05-04 23:57 |
|---|---|
| Airport | Myrtle Beach International Airport (KMYR) |
Arrival
| Time | 2026-05-05 00:57 |
|---|---|
| Airport | Orlando Sanford International Airport (KSFB) |
| Time | Latitude | Longitude | Altitude | Speed | Heading |
|---|---|---|---|---|---|
| 2026-05-04 23:22 | 33.68166 | -78.92397 | 35 ft | 0 kts | 77° |
| 2026-05-04 23:43 | 33.68164 | -78.92407 | 35 ft | 3 kts | 77° |
| 2026-05-04 23:43 | 33.68160 | -78.92429 | 35 ft | 3 kts | 77° |
| 2026-05-04 23:43 | 33.68156 | -78.92451 | 35 ft | 3 kts | 77° |
| 2026-05-04 23:44 | 33.68151 | -78.92472 | 35 ft | 3 kts | 77° |
| 2026-05-04 23:44 | 33.68147 | -78.92493 | 35 ft | 3 kts | 77° |
| 2026-05-04 23:44 | 33.68144 | -78.92511 | 35 ft | 0 kts | 77° |
| 2026-05-04 23:48 | 33.68144 | -78.92510 | 35 ft | 0 kts | 70° |
| 2026-05-04 23:48 | 33.68147 | -78.92509 | 35 ft | 1 kts | 40° |
| 2026-05-04 23:48 | 33.68150 | -78.92509 | 35 ft | 0 kts | 2° |
| 2026-05-04 23:48 | 33.68151 | -78.92510 | 35 ft | 0 kts | 354° |
| 2026-05-04 23:49 | 33.68153 | -78.92514 | 35 ft | 1 kts | 301° |
| 2026-05-04 23:50 | 33.68153 | -78.92522 | 35 ft | 2 kts | 277° |
| 2026-05-04 23:50 | 33.68158 | -78.92549 | 35 ft | 5 kts | 285° |
| 2026-05-04 23:50 | 33.68170 | -78.92593 | 35 ft | 7 kts | 290° |
| 2026-05-04 23:50 | 33.68176 | -78.92626 | 35 ft | 4 kts | 272° |
| 2026-05-04 23:51 | 33.68184 | -78.92663 | 35 ft | 6 kts | 304° |
| 2026-05-04 23:51 | 33.68225 | -78.92692 | 35 ft | 9 kts | 342° |
| 2026-05-04 23:51 | 33.68304 | -78.92715 | 35 ft | 14 kts | 346° |
| 2026-05-04 23:51 | 33.68417 | -78.92741 | 35 ft | 18 kts | 349° |
| 2026-05-04 23:52 | 33.68536 | -78.92771 | 35 ft | 15 kts | 348° |
| 2026-05-04 23:52 | 33.68644 | -78.92798 | 35 ft | 17 kts | 348° |
| 2026-05-04 23:52 | 33.68768 | -78.92829 | 35 ft | 19 kts | 348° |
| 2026-05-04 23:52 | 33.68889 | -78.92860 | 35 ft | 13 kts | 348° |
| 2026-05-04 23:53 | 33.68985 | -78.92855 | 35 ft | 15 kts | 11° |
| 2026-05-04 23:53 | 33.69095 | -78.92869 | 35 ft | 15 kts | 348° |
| 2026-05-04 23:53 | 33.69198 | -78.92896 | 35 ft | 12 kts | 348° |
| 2026-05-04 23:53 | 33.69249 | -78.92910 | 35 ft | 7 kts | 344° |
| 2026-05-04 23:54 | 33.69274 | -78.92956 | 35 ft | 8 kts | 265° |
| 2026-05-04 23:54 | 33.69263 | -78.93027 | 35 ft | 4 kts | 258° |
| 2026-05-04 23:54 | 33.69262 | -78.93028 | 35 ft | 0 kts | 257° |
| 2026-05-04 23:55 | 33.69257 | -78.93059 | 36 ft | 9 kts | 259° |
| 2026-05-04 23:56 | 33.69243 | -78.93125 | 36 ft | 6 kts | 244° |
| 2026-05-04 23:56 | 33.69208 | -78.93140 | 36 ft | 6 kts | 166° |
| 2026-05-04 23:56 | 33.69204 | -78.93139 | 36 ft | 0 kts | 167° |
| 2026-05-04 23:56 | 33.69020 | -78.93093 | 38 ft | 69 kts | 168° |
| 2026-05-04 23:57 | 33.68277 | -78.92909 | 33 ft | 147 kts | 168° |
| 2026-05-04 23:57 | 33.67133 | -78.92687 | 562 ft | 174 kts | 172° |
| 2026-05-04 23:57 | 33.65906 | -78.92386 | 1526 ft | 188 kts | 169° |
| 2026-05-04 23:57 | 33.64562 | -78.91977 | 2209 ft | 214 kts | 168° |
| 2026-05-04 23:58 | 33.62980 | -78.91519 | 2339 ft | 247 kts | 168° |
| 2026-05-04 23:58 | 33.61343 | -78.91031 | 2375 ft | 239 kts | 167° |
| 2026-05-04 23:58 | 33.59737 | -78.90557 | 2533 ft | 238 kts | 168° |
| 2026-05-04 23:58 | 33.58131 | -78.90125 | 3527 ft | 233 kts | 175° |
| 2026-05-04 23:59 | 33.56566 | -78.90484 | 4520 ft | 238 kts | 210° |
| 2026-05-04 23:59 | 33.55375 | -78.91898 | 5286 ft | 249 kts | 238° |
| 2026-05-04 23:59 | 33.54410 | -78.93696 | 6048 ft | 262 kts | 237° |
| 2026-05-04 23:59 | 33.53369 | -78.95539 | 6919 ft | 269 kts | 237° |
| 2026-05-05 00:00 | 33.52303 | -78.97402 | 7805 ft | 274 kts | 237° |
| 2026-05-05 00:00 | 33.51950 | -78.98014 | 8116 ft | 274 kts | 237° |
| 2026-05-05 00:00 | 33.50122 | -79.01169 | 9679 ft | 280 kts | 238° |
| 2026-05-05 00:00 | 33.48992 | -79.03109 | 10432 ft | 290 kts | 238° |
| 2026-05-05 00:01 | 33.47791 | -79.05151 | 10866 ft | 310 kts | 237° |
| 2026-05-05 00:01 | 33.46499 | -79.07330 | 11294 ft | 329 kts | 237° |
| 2026-05-05 00:01 | 33.45147 | -79.09612 | 11862 ft | 341 kts | 237° |
| 2026-05-05 00:01 | 33.43774 | -79.11941 | 12740 ft | 343 kts | 237° |
| 2026-05-05 00:02 | 33.42396 | -79.14290 | 13580 ft | 347 kts | 237° |
| 2026-05-05 00:02 | 33.41005 | -79.16664 | 14386 ft | 350 kts | 237° |
| 2026-05-05 00:02 | 33.39604 | -79.19055 | 15174 ft | 352 kts | 237° |
| 2026-05-05 00:02 | 33.38192 | -79.21464 | 15948 ft | 355 kts | 237° |
| 2026-05-05 00:03 | 33.36765 | -79.23895 | 16719 ft | 357 kts | 237° |
| 2026-05-05 00:03 | 33.35334 | -79.26335 | 17473 ft | 360 kts | 237° |
| 2026-05-05 00:03 | 33.33890 | -79.28793 | 18207 ft | 363 kts | 237° |
| 2026-05-05 00:03 | 33.32436 | -79.31268 | 18856 ft | 365 kts | 237° |
| 2026-05-05 00:04 | 33.30969 | -79.33764 | 19491 ft | 368 kts | 238° |
| 2026-05-05 00:04 | 33.29496 | -79.36267 | 20112 ft | 370 kts | 238° |
| 2026-05-05 00:04 | 33.28007 | -79.38796 | 20732 ft | 372 kts | 238° |
| 2026-05-05 00:04 | 33.26512 | -79.41335 | 21347 ft | 374 kts | 238° |
| 2026-05-05 00:05 | 33.25007 | -79.43889 | 21944 ft | 377 kts | 238° |
| 2026-05-05 00:05 | 33.23489 | -79.46463 | 22493 ft | 381 kts | 238° |
| 2026-05-05 00:05 | 33.21957 | -79.49060 | 23046 ft | 384 kts | 238° |
| 2026-05-05 00:05 | 33.20415 | -79.51671 | 23605 ft | 387 kts | 237° |
| 2026-05-05 00:06 | 33.18857 | -79.54306 | 24086 ft | 389 kts | 237° |
| 2026-05-05 00:06 | 33.17291 | -79.56955 | 24574 ft | 391 kts | 238° |
| 2026-05-05 00:06 | 33.15719 | -79.59613 | 25047 ft | 393 kts | 238° |
| 2026-05-05 00:06 | 33.14137 | -79.62286 | 25505 ft | 395 kts | 238° |
| 2026-05-05 00:07 | 33.12546 | -79.64971 | 25973 ft | 397 kts | 237° |
| 2026-05-05 00:07 | 33.10946 | -79.67669 | 26412 ft | 399 kts | 237° |
| 2026-05-05 00:07 | 33.09341 | -79.70375 | 26853 ft | 401 kts | 237° |
| 2026-05-05 00:07 | 33.07739 | -79.73074 | 27286 ft | 403 kts | 237° |
| 2026-05-05 00:08 | 33.06115 | -79.75808 | 27724 ft | 406 kts | 237° |
| 2026-05-05 00:08 | 33.04476 | -79.78565 | 28141 ft | 408 kts | 237° |
| 2026-05-05 00:08 | 33.02830 | -79.81331 | 28567 ft | 410 kts | 237° |
| 2026-05-05 00:08 | 33.01179 | -79.84106 | 28948 ft | 412 kts | 237° |
| 2026-05-05 00:09 | 32.99513 | -79.86902 | 29354 ft | 415 kts | 237° |
| 2026-05-05 00:09 | 32.97834 | -79.89718 | 29753 ft | 417 kts | 237° |
| 2026-05-05 00:09 | 32.96156 | -79.92531 | 30140 ft | 419 kts | 237° |
| 2026-05-05 00:09 | 32.94479 | -79.95341 | 30459 ft | 421 kts | 237° |
| 2026-05-05 00:10 | 32.92782 | -79.98180 | 30791 ft | 422 kts | 237° |
| 2026-05-05 00:10 | 32.91074 | -80.01037 | 31119 ft | 424 kts | 237° |
| 2026-05-05 00:10 | 32.89290 | -80.03854 | 31441 ft | 428 kts | 230° |
| 2026-05-05 00:10 | 32.87089 | -80.06246 | 31887 ft | 429 kts | 226° |
| 2026-05-05 00:11 | 32.84888 | -80.08645 | 32294 ft | 428 kts | 226° |
| 2026-05-05 00:11 | 32.82693 | -80.11023 | 32758 ft | 426 kts | 226° |
| 2026-05-05 00:11 | 32.80504 | -80.13382 | 33242 ft | 424 kts | 226° |
| 2026-05-05 00:11 | 32.78318 | -80.15731 | 33699 ft | 422 kts | 226° |
| 2026-05-05 00:12 | 32.76144 | -80.18064 | 34061 ft | 422 kts | 226° |
| 2026-05-05 00:12 | 32.71798 | -80.22722 | 34106 ft | 419 kts | 226° |
| 2026-05-05 00:13 | 32.67471 | -80.27354 | 34102 ft | 419 kts | 226° |
| 2026-05-05 00:13 | 32.63143 | -80.31981 | 34100 ft | 419 kts | 226° |
| 2026-05-05 00:14 | 32.58812 | -80.36603 | 34096 ft | 419 kts | 225° |
| 2026-05-05 00:14 | 32.56412 | -80.38605 | 34093 ft | 425 kts | 213° |
| 2026-05-05 00:14 | 32.53833 | -80.40320 | 34082 ft | 426 kts | 215° |
| 2026-05-05 00:15 | 32.48701 | -80.43824 | 34083 ft | 427 kts | 214° |
| 2026-05-05 00:15 | 32.43566 | -80.47293 | 34094 ft | 427 kts | 214° |
| 2026-05-05 00:16 | 32.38398 | -80.50776 | 34097 ft | 427 kts | 214° |
| 2026-05-05 00:16 | 32.33229 | -80.54255 | 34102 ft | 427 kts | 214° |
| 2026-05-05 00:17 | 32.28060 | -80.57728 | 34100 ft | 427 kts | 214° |
| 2026-05-05 00:17 | 32.22886 | -80.61202 | 34095 ft | 428 kts | 214° |
| 2026-05-05 00:18 | 32.17706 | -80.64673 | 34112 ft | 428 kts | 214° |
| 2026-05-05 00:18 | 32.12527 | -80.68140 | 34103 ft | 428 kts | 214° |
| 2026-05-05 00:19 | 32.07344 | -80.71605 | 34105 ft | 428 kts | 214° |
| 2026-05-05 00:19 | 32.02172 | -80.75058 | 34101 ft | 428 kts | 214° |
| 2026-05-05 00:20 | 31.96999 | -80.78508 | 34084 ft | 426 kts | 215° |
| 2026-05-05 00:20 | 31.91851 | -80.81936 | 34074 ft | 425 kts | 215° |
| 2026-05-05 00:21 | 31.86698 | -80.85362 | 34071 ft | 425 kts | 215° |
| 2026-05-05 00:21 | 31.81551 | -80.88781 | 34076 ft | 425 kts | 215° |
| 2026-05-05 00:22 | 31.76400 | -80.92199 | 34076 ft | 425 kts | 215° |
| 2026-05-05 00:22 | 31.71244 | -80.95613 | 34075 ft | 425 kts | 216° |
| 2026-05-05 00:23 | 31.66131 | -80.98997 | 34076 ft | 424 kts | 216° |
| 2026-05-05 00:23 | 31.60979 | -81.02402 | 34078 ft | 425 kts | 216° |
| 2026-05-05 00:24 | 31.55750 | -81.05682 | 34077 ft | 426 kts | 214° |
| 2026-05-05 00:24 | 31.50504 | -81.08907 | 34080 ft | 426 kts | 214° |
| 2026-05-05 00:25 | 31.45262 | -81.12134 | 34077 ft | 424 kts | 215° |
| 2026-05-05 00:25 | 31.40048 | -81.15339 | 34088 ft | 423 kts | 215° |
| 2026-05-05 00:26 | 31.34795 | -81.18483 | 34087 ft | 424 kts | 214° |
| 2026-05-05 00:26 | 31.30420 | -81.21085 | 34087 ft | 424 kts | 214° |
| 2026-05-05 00:27 | 31.24292 | -81.24729 | 34092 ft | 424 kts | 214° |
| 2026-05-05 00:27 | 31.19849 | -81.27292 | 34068 ft | 429 kts | 208° |
| 2026-05-05 00:27 | 31.16903 | -81.28094 | 34078 ft | 447 kts | 193° |
| 2026-05-05 00:28 | 31.13751 | -81.28170 | 34096 ft | 454 kts | 190° |
| 2026-05-05 00:28 | 31.07432 | -81.28225 | 34094 ft | 455 kts | 189° |
| 2026-05-05 00:29 | 31.01132 | -81.28219 | 34088 ft | 455 kts | 189° |
| 2026-05-05 00:29 | 30.94757 | -81.28203 | 34049 ft | 455 kts | 189° |
| 2026-05-05 00:30 | 30.88408 | -81.28187 | 34093 ft | 457 kts | 189° |
| 2026-05-05 00:30 | 30.82093 | -81.28170 | 33597 ft | 449 kts | 189° |
| 2026-05-05 00:30 | 30.78984 | -81.28162 | 32990 ft | 447 kts | 189° |
| 2026-05-05 00:31 | 30.75885 | -81.28154 | 32418 ft | 443 kts | 189° |
| 2026-05-05 00:31 | 30.72849 | -81.28147 | 31910 ft | 440 kts | 189° |
| 2026-05-05 00:31 | 30.69764 | -81.28139 | 31395 ft | 436 kts | 189° |
| 2026-05-05 00:31 | 30.66738 | -81.28131 | 30870 ft | 434 kts | 189° |
| 2026-05-05 00:32 | 30.63768 | -81.28125 | 30325 ft | 431 kts | 189° |
| 2026-05-05 00:32 | 30.60741 | -81.28105 | 29771 ft | 430 kts | 187° |
| 2026-05-05 00:32 | 30.57794 | -81.27944 | 29156 ft | 429 kts | 186° |
| 2026-05-05 00:32 | 30.54825 | -81.27785 | 28680 ft | 424 kts | 186° |
| 2026-05-05 00:33 | 30.51889 | -81.27637 | 28177 ft | 420 kts | 186° |
| 2026-05-05 00:33 | 30.48944 | -81.27491 | 27672 ft | 417 kts | 186° |
| 2026-05-05 00:33 | 30.46091 | -81.27351 | 27188 ft | 414 kts | 185° |
| 2026-05-05 00:33 | 30.43219 | -81.27210 | 26687 ft | 412 kts | 185° |
| 2026-05-05 00:34 | 30.40369 | -81.27070 | 26215 ft | 409 kts | 185° |
| 2026-05-05 00:34 | 30.37530 | -81.26931 | 25733 ft | 407 kts | 185° |
| 2026-05-05 00:34 | 30.34707 | -81.26793 | 25261 ft | 405 kts | 184° |
| 2026-05-05 00:34 | 30.31896 | -81.26655 | 24793 ft | 403 kts | 184° |
| 2026-05-05 00:35 | 30.29089 | -81.26518 | 24327 ft | 402 kts | 184° |
| 2026-05-05 00:35 | 30.26302 | -81.26360 | 23852 ft | 401 kts | 183° |
| 2026-05-05 00:35 | 30.23504 | -81.26184 | 23218 ft | 403 kts | 182° |
| 2026-05-05 00:35 | 30.20706 | -81.26012 | 22672 ft | 401 kts | 182° |
| 2026-05-05 00:36 | 30.17931 | -81.25842 | 22151 ft | 400 kts | 182° |
| 2026-05-05 00:36 | 30.15159 | -81.25672 | 21626 ft | 398 kts | 182° |
| 2026-05-05 00:36 | 30.12423 | -81.25505 | 21102 ft | 397 kts | 182° |
| 2026-05-05 00:36 | 30.09671 | -81.25337 | 20565 ft | 396 kts | 182° |
| 2026-05-05 00:37 | 30.06917 | -81.25169 | 20053 ft | 395 kts | 181° |
| 2026-05-05 00:37 | 30.04171 | -81.25001 | 19532 ft | 395 kts | 181° |
| 2026-05-05 00:37 | 30.01426 | -81.24834 | 19007 ft | 395 kts | 181° |
| 2026-05-05 00:37 | 29.98683 | -81.24666 | 18485 ft | 395 kts | 181° |
| 2026-05-05 00:38 | 29.95940 | -81.24499 | 17897 ft | 394 kts | 181° |
| 2026-05-05 00:38 | 29.93198 | -81.24332 | 17292 ft | 394 kts | 180° |
| 2026-05-05 00:38 | 29.90458 | -81.24222 | 16681 ft | 394 kts | 181° |
| 2026-05-05 00:38 | 29.87730 | -81.24126 | 16175 ft | 392 kts | 181° |
| 2026-05-05 00:39 | 29.85017 | -81.24025 | 15669 ft | 389 kts | 181° |
| 2026-05-05 00:39 | 29.82319 | -81.23925 | 15163 ft | 388 kts | 180° |
| 2026-05-05 00:39 | 29.79632 | -81.23825 | 14654 ft | 386 kts | 180° |
| 2026-05-05 00:39 | 29.76952 | -81.23725 | 14146 ft | 385 kts | 180° |
| 2026-05-05 00:40 | 29.74282 | -81.23625 | 13597 ft | 383 kts | 180° |
| 2026-05-05 00:40 | 29.71618 | -81.23526 | 13054 ft | 381 kts | 180° |
| 2026-05-05 00:40 | 29.69022 | -81.23428 | 12541 ft | 366 kts | 180° |
| 2026-05-05 00:40 | 29.66520 | -81.23327 | 12106 ft | 351 kts | 179° |
| 2026-05-05 00:41 | 29.64154 | -81.23193 | 11961 ft | 329 kts | 179° |
| 2026-05-05 00:41 | 29.61935 | -81.23068 | 11860 ft | 308 kts | 179° |
| 2026-05-05 00:41 | 29.59831 | -81.22952 | 11790 ft | 302 kts | 180° |
| 2026-05-05 00:41 | 29.57732 | -81.22837 | 11721 ft | 301 kts | 180° |
| 2026-05-05 00:42 | 29.55644 | -81.22722 | 11670 ft | 301 kts | 180° |
| 2026-05-05 00:42 | 29.53551 | -81.22606 | 11585 ft | 300 kts | 179° |
| 2026-05-05 00:42 | 29.51464 | -81.22492 | 11527 ft | 300 kts | 179° |
| 2026-05-05 00:42 | 29.49383 | -81.22378 | 11464 ft | 300 kts | 179° |
| 2026-05-05 00:43 | 29.47296 | -81.22264 | 11399 ft | 300 kts | 179° |
| 2026-05-05 00:43 | 29.45239 | -81.22151 | 11331 ft | 299 kts | 179° |
| 2026-05-05 00:43 | 29.43163 | -81.22037 | 11265 ft | 299 kts | 179° |
| 2026-05-05 00:43 | 29.41084 | -81.21923 | 11200 ft | 299 kts | 179° |
| 2026-05-05 00:44 | 29.39012 | -81.21810 | 11136 ft | 299 kts | 179° |
| 2026-05-05 00:44 | 29.36939 | -81.21701 | 11044 ft | 299 kts | 180° |
| 2026-05-05 00:44 | 29.34854 | -81.21614 | 10692 ft | 301 kts | 180° |
| 2026-05-05 00:44 | 29.32759 | -81.21527 | 10314 ft | 301 kts | 180° |
| 2026-05-05 00:45 | 29.30664 | -81.21439 | 9958 ft | 302 kts | 180° |
| 2026-05-05 00:45 | 29.28566 | -81.21350 | 9561 ft | 302 kts | 180° |
| 2026-05-05 00:45 | 29.26472 | -81.21261 | 9188 ft | 301 kts | 180° |
| 2026-05-05 00:45 | 29.24381 | -81.21158 | 8812 ft | 300 kts | 178° |
| 2026-05-05 00:46 | 29.22297 | -81.21014 | 8403 ft | 297 kts | 178° |
| 2026-05-05 00:46 | 29.20270 | -81.20877 | 8056 ft | 286 kts | 178° |
| 2026-05-05 00:46 | 29.18309 | -81.20746 | 7742 ft | 282 kts | 179° |
| 2026-05-05 00:46 | 29.16343 | -81.20614 | 7450 ft | 282 kts | 178° |
| 2026-05-05 00:47 | 29.14392 | -81.20485 | 7119 ft | 280 kts | 178° |
| 2026-05-05 00:47 | 29.12452 | -81.20358 | 6796 ft | 279 kts | 178° |
| 2026-05-05 00:47 | 29.10518 | -81.20319 | 6418 ft | 276 kts | 181° |
| 2026-05-05 00:47 | 29.08607 | -81.20302 | 6041 ft | 274 kts | 180° |
| 2026-05-05 00:48 | 29.06702 | -81.20280 | 5695 ft | 272 kts | 180° |
| 2026-05-05 00:48 | 29.04836 | -81.20256 | 5351 ft | 264 kts | 181° |
| 2026-05-05 00:48 | 29.03025 | -81.20241 | 5079 ft | 253 kts | 185° |
| 2026-05-05 00:48 | 29.01393 | -81.20590 | 5082 ft | 228 kts | 197° |
| 2026-05-05 00:49 | 28.99934 | -81.21040 | 5095 ft | 209 kts | 197° |
| 2026-05-05 00:49 | 28.98555 | -81.21460 | 4881 ft | 205 kts | 197° |
| 2026-05-05 00:49 | 28.97180 | -81.21878 | 4626 ft | 203 kts | 197° |
| 2026-05-05 00:49 | 28.95812 | -81.22294 | 4333 ft | 204 kts | 195° |
| 2026-05-05 00:50 | 28.94463 | -81.22702 | 4093 ft | 202 kts | 194° |
| 2026-05-05 00:50 | 28.93134 | -81.23239 | 3794 ft | 203 kts | 204° |
| 2026-05-05 00:50 | 28.91877 | -81.23991 | 3499 ft | 205 kts | 207° |
| 2026-05-05 00:50 | 28.90626 | -81.24779 | 3215 ft | 205 kts | 207° |
| 2026-05-05 00:51 | 28.89382 | -81.25582 | 2925 ft | 206 kts | 207° |
| 2026-05-05 00:51 | 28.88139 | -81.26398 | 2694 ft | 203 kts | 207° |
| 2026-05-05 00:51 | 28.86960 | -81.27205 | 2586 ft | 195 kts | 210° |
| 2026-05-05 00:51 | 28.86113 | -81.28404 | 2268 ft | 200 kts | 253° |
| 2026-05-05 00:52 | 28.85901 | -81.29959 | 2053 ft | 199 kts | 263° |
| 2026-05-05 00:52 | 28.85765 | -81.31545 | 2002 ft | 203 kts | 263° |
| 2026-05-05 00:52 | 28.85617 | -81.33163 | 2012 ft | 207 kts | 263° |
| 2026-05-05 00:52 | 28.85389 | -81.34767 | 1989 ft | 203 kts | 248° |
| 2026-05-05 00:53 | 28.84531 | -81.35933 | 1876 ft | 188 kts | 198° |
| 2026-05-05 00:53 | 28.83300 | -81.36131 | 1984 ft | 179 kts | 173° |
| 2026-05-05 00:53 | 28.82006 | -81.36092 | 1639 ft | 199 kts | 173° |
| 2026-05-05 00:53 | 28.80630 | -81.36049 | 1522 ft | 190 kts | 173° |
| 2026-05-05 00:54 | 28.79419 | -81.35678 | 1467 ft | 175 kts | 139° |
| 2026-05-05 00:54 | 28.78704 | -81.34635 | 1457 ft | 167 kts | 109° |
| 2026-05-05 00:54 | 28.78349 | -81.33371 | 1372 ft | 168 kts | 101° |
| 2026-05-05 00:54 | 28.78181 | -81.32071 | 1257 ft | 159 kts | 92° |
| 2026-05-05 00:55 | 28.78161 | -81.30869 | 1046 ft | 146 kts | 89° |
| 2026-05-05 00:55 | 28.78168 | -81.29769 | 879 ft | 135 kts | 90° |
| 2026-05-05 00:55 | 28.78158 | -81.28718 | 746 ft | 132 kts | 90° |
| 2026-05-05 00:55 | 28.78173 | -81.27668 | 482 ft | 132 kts | 89° |
| 2026-05-05 00:56 | 28.78172 | -81.26616 | 328 ft | 134 kts | 90° |
| 2026-05-05 00:56 | 28.78175 | -81.25547 | 152 ft | 136 kts | 89° |
| 2026-05-05 00:56 | 28.78176 | -81.24504 | 58 ft | 120 kts | 90° |
| 2026-05-05 00:56 | 28.78177 | -81.23717 | 66 ft | 90 kts | 89° |
| 2026-05-05 00:57 | 28.78178 | -81.23171 | 54 ft | 49 kts | 90° |
| 2026-05-05 00:57 | 28.78178 | -81.22941 | 54 ft | 17 kts | 92° |
| 2026-05-05 00:57 | 28.78172 | -81.22842 | 59 ft | 11 kts | 106° |
| 2026-05-05 00:57 | 28.78108 | -81.22799 | 55 ft | 13 kts | 175° |
| 2026-05-05 00:58 | 28.78075 | -81.22798 | 54 ft | 0 kts | 179° |
| 2026-05-05 00:59 | 28.78073 | -81.22798 | 55 ft | 2 kts | 181° |
| 2026-05-05 01:00 | 28.78032 | -81.22805 | 58 ft | 10 kts | 195° |
| 2026-05-05 01:00 | 28.78005 | -81.22839 | 55 ft | 6 kts | 259° |
| 2026-05-05 01:00 | 28.78003 | -81.22851 | 54 ft | 2 kts | 263° |
| 2026-05-05 01:00 | 28.78003 | -81.22891 | 59 ft | 10 kts | 272° |
| 2026-05-05 01:01 | 28.78013 | -81.22997 | 59 ft | 15 kts | 272° |
| 2026-05-05 01:01 | 28.78014 | -81.23112 | 59 ft | 14 kts | 269° |
| 2026-05-05 01:01 | 28.78013 | -81.23237 | 56 ft | 17 kts | 270° |
| 2026-05-05 01:01 | 28.78013 | -81.23301 | 60 ft | 2 kts | 269° |
| 2026-05-05 01:02 | 28.78013 | -81.23341 | 64 ft | 8 kts | 269° |
| 2026-05-05 01:02 | 28.78012 | -81.23391 | 62 ft | 5 kts | 270° |
| 2026-05-05 01:02 | 28.78010 | -81.23431 | 63 ft | 6 kts | 260° |
| 2026-05-05 01:02 | 28.77981 | -81.23469 | 62 ft | 8 kts | 204° |
| 2026-05-05 01:03 | 28.77917 | -81.23478 | 59 ft | 9 kts | 182° |
| 2026-05-05 01:03 | 28.77860 | -81.23506 | 64 ft | 0 kts | 236° |
| 2026-05-05 01:03 | 28.77851 | -81.23508 | 64 ft | 4 kts | 185° |
| 2026-05-05 01:03 | 28.77795 | -81.23491 | 55 ft | 8 kts | 166° |
| 2026-05-05 01:04 | 28.77739 | -81.23481 | 60 ft | 8 kts | 174° |
| 2026-05-05 01:04 | 28.77639 | -81.23478 | 57 ft | 10 kts | 180° |
| 2026-05-05 01:04 | 28.77568 | -81.23478 | 59 ft | 11 kts | 180° |
| 2026-05-05 01:05 | 28.77466 | -81.23477 | 59 ft | 17 kts | 180° |
| 2026-05-05 01:05 | 28.77345 | -81.23478 | 59 ft | 14 kts | 180° |
| 2026-05-05 01:05 | 28.77282 | -81.23486 | 60 ft | 8 kts | 211° |
| 2026-05-05 01:05 | 28.77262 | -81.23554 | 60 ft | 10 kts | 258° |
| 2026-05-05 01:06 | 28.77278 | -81.23613 | 54 ft | 9 kts | 328° |
| 2026-05-05 01:06 | 28.77347 | -81.23627 | 56 ft | 12 kts | 358° |
| 2026-05-05 01:06 | 28.77452 | -81.23628 | 55 ft | 18 kts | 360° |
| 2026-05-05 01:06 | 28.77590 | -81.23630 | 55 ft | 17 kts | 360° |
| 2026-05-05 01:07 | 28.77671 | -81.23632 | 59 ft | 6 kts | 356° |
| 2026-05-05 01:07 | 28.77710 | -81.23634 | 58 ft | 8 kts | 357° |
| 2026-05-05 01:07 | 28.77758 | -81.23673 | 57 ft | 10 kts | 285° |
| 2026-05-05 01:07 | 28.77764 | -81.23763 | 63 ft | 13 kts | 270° |
| 2026-05-05 01:08 | 28.77765 | -81.23891 | 61 ft | 19 kts | 270° |
| 2026-05-05 01:08 | 28.77764 | -81.24030 | 61 ft | 11 kts | 270° |
| 2026-05-05 01:08 | 28.77764 | -81.24119 | 61 ft | 9 kts | 270° |
| 2026-05-05 01:08 | 28.77747 | -81.24184 | 58 ft | 8 kts | 236° |
| 2026-05-05 01:09 | 28.77716 | -81.24206 | 60 ft | 0 kts | 185° |
| 2026-05-05 01:09 | 28.77703 | -81.24207 | 56 ft | 3 kts | 188° |
| 2026-05-05 01:09 | 28.77674 | -81.24213 | 62 ft | 5 kts | 188° |
| 2026-05-05 01:09 | 28.77637 | -81.24232 | 63 ft | 7 kts | 224° |
| 2026-05-05 01:10 | 28.77627 | -81.24260 | 59 ft | 3 kts | 258° |
| 2026-05-05 01:10 | 28.77625 | -81.24270 | 62 ft | 1 kts | 258° |
| 2026-05-05 01:10 | 28.77624 | -81.24280 | 63 ft | 0 kts | 264° |